sensor_id;sensor_type;location;lat;lon;timestamp;pressure;altitude;pressure_sealevel;temperature;humidity
69980;BME280;57318;56.232;43.944;2023-05-11T00:01:58;99682.47;;;9.99;40.25
69980;BME280;57318;56.232;43.944;2023-05-11T00:04:25;99683.97;;;10.03;40.28
69980;BME280;57318;56.232;43.944;2023-05-11T00:06:51;99682.03;;;10.05;39.75
69980;BME280;57318;56.232;43.944;2023-05-11T00:09:16;99680.09;;;10.07;39.70
69980;BME280;57318;56.232;43.944;2023-05-11T00:11:42;99681.69;;;10.10;39.63
69980;BME280;57318;56.232;43.944;2023-05-11T00:14:08;99684.94;;;10.14;39.83
69980;BME280;57318;56.232;43.944;2023-05-11T00:16:34;99689.81;;;10.20;39.23
69980;BME280;57318;56.232;43.944;2023-05-11T00:18:59;99687.97;;;10.33;39.06
69980;BME280;57318;56.232;43.944;2023-05-11T00:21:25;99677.63;;;10.41;38.92
69980;BME280;57318;56.232;43.944;2023-05-11T00:23:51;99685.59;;;10.53;38.81
69980;BME280;57318;56.232;43.944;2023-05-11T00:26:16;99682.13;;;10.63;38.39
69980;BME280;57318;56.232;43.944;2023-05-11T00:28:42;99683.16;;;10.74;38.38
69980;BME280;57318;56.232;43.944;2023-05-11T00:31:09;99682.53;;;10.81;38.27
69980;BME280;57318;56.232;43.944;2023-05-11T00:33:35;99673.97;;;10.89;38.35
69980;BME280;57318;56.232;43.944;2023-05-11T00:36:02;99677.97;;;10.95;38.49
69980;BME280;57318;56.232;43.944;2023-05-11T00:38:28;99676.66;;;11.00;38.74
69980;BME280;57318;56.232;43.944;2023-05-11T00:40:54;99672.88;;;11.03;38.92
69980;BME280;57318;56.232;43.944;2023-05-11T00:43:19;99672.88;;;11.03;39.31
69980;BME280;57318;56.232;43.944;2023-05-11T00:45:45;99685.47;;;11.01;39.35
69980;BME280;57318;56.232;43.944;2023-05-11T00:48:14;99679.44;;;10.99;39.37
69980;BME280;57318;56.232;43.944;2023-05-11T00:50:40;99676.78;;;10.99;38.87
69980;BME280;57318;56.232;43.944;2023-05-11T00:53:06;99679.31;;;11.00;38.37
69980;BME280;57318;56.232;43.944;2023-05-11T00:55:32;99679.91;;;11.04;38.02
69980;BME280;57318;56.232;43.944;2023-05-11T00:57:58;99682.31;;;11.07;38.05
69980;BME280;57318;56.232;43.944;2023-05-11T01:00:24;99686.41;;;11.11;38.14
69980;BME280;57318;56.232;43.944;2023-05-11T01:02:51;99679.31;;;11.12;38.39
69980;BME280;57318;56.232;43.944;2023-05-11T01:05:17;99680.16;;;11.12;38.61
69980;BME280;57318;56.232;43.944;2023-05-11T01:07:58;99678.44;;;11.11;39.01
69980;BME280;57318;56.232;43.944;2023-05-11T01:10:33;99681.38;;;11.08;39.51
69980;BME280;57318;56.232;43.944;2023-05-11T01:15:54;99677.38;;;11.02;39.86
69980;BME280;57318;56.232;43.944;2023-05-11T01:20:56;99677.00;;;10.96;40.14
69980;BME280;57318;56.232;43.944;2023-05-11T01:31:33;99694.28;;;10.90;39.77
69980;BME280;57318;56.232;43.944;2023-05-11T01:34:09;99688.72;;;10.93;39.94
69980;BME280;57318;56.232;43.944;2023-05-11T01:36:42;99683.41;;;10.93;40.13
69980;BME280;57318;56.232;43.944;2023-05-11T01:39:11;99682.56;;;10.93;40.68
69980;BME280;57318;56.232;43.944;2023-05-11T01:41:39;99681.69;;;10.92;40.61
69980;BME280;57318;56.232;43.944;2023-05-11T01:44:08;99684.22;;;10.94;40.39
69980;BME280;57318;56.232;43.944;2023-05-11T01:46:35;99678.91;;;10.94;40.51
69980;BME280;57318;56.232;43.944;2023-05-11T01:49:05;99682.09;;;10.99;40.81
69980;BME280;57318;56.232;43.944;2023-05-11T01:51:35;99681.84;;;11.02;41.16
69980;BME280;57318;56.232;43.944;2023-05-11T01:54:05;99686.06;;;11.05;41.49
69980;BME280;57318;56.232;43.944;2023-05-11T01:56:34;99678.94;;;11.05;41.33
69980;BME280;57318;56.232;43.944;2023-05-11T01:59:01;99681.50;;;11.07;41.56
69980;BME280;57318;56.232;43.944;2023-05-11T02:01:28;99686.53;;;11.10;41.67
69980;BME280;57318;56.232;43.944;2023-05-11T02:03:55;99684.50;;;11.13;41.66
69980;BME280;57318;56.232;43.944;2023-05-11T02:06:22;99686.06;;;11.16;41.42
69980;BME280;57318;56.232;43.944;2023-05-11T02:08:49;99683.03;;;11.20;40.90
69980;BME280;57318;56.232;43.944;2023-05-11T02:11:16;99679.78;;;11.28;40.91
69980;BME280;57318;56.232;43.944;2023-05-11T02:13:44;99682.53;;;11.38;40.96
69980;BME280;57318;56.232;43.944;2023-05-11T02:16:11;99685.72;;;11.43;41.72
69980;BME280;57318;56.232;43.944;2023-05-11T02:18:39;99676.25;;;11.50;41.88
69980;BME280;57318;56.232;43.944;2023-05-11T02:21:08;99688.81;;;11.60;41.60
69980;BME280;57318;56.232;43.944;2023-05-11T02:23:35;99690.16;;;11.65;41.48
69980;BME280;57318;56.232;43.944;2023-05-11T02:26:02;99692.78;;;11.77;40.66
69980;BME280;57318;56.232;43.944;2023-05-11T02:28:29;99690.09;;;11.88;39.88
69980;BME280;57318;56.232;43.944;2023-05-11T02:30:57;99691.06;;;11.98;39.66
69980;BME280;57318;56.232;43.944;2023-05-11T02:33:27;99693.69;;;12.09;39.44
69980;BME280;57318;56.232;43.944;2023-05-11T02:35:56;99699.22;;;12.18;39.52
69980;BME280;57318;56.232;43.944;2023-05-11T02:38:34;99696.06;;;12.24;39.46
69980;BME280;57318;56.232;43.944;2023-05-11T02:41:06;99699.91;;;12.31;39.63
69980;BME280;57318;56.232;43.944;2023-05-11T02:43:35;99690.44;;;12.38;39.31
69980;BME280;57318;56.232;43.944;2023-05-11T02:46:09;99693.44;;;12.45;39.27
69980;BME280;57318;56.232;43.944;2023-05-11T02:48:43;99697.97;;;12.54;39.54
69980;BME280;57318;56.232;43.944;2023-05-11T02:51:13;99701.13;;;12.59;39.37
69980;BME280;57318;56.232;43.944;2023-05-11T02:53:41;99691.88;;;12.63;39.38
69980;BME280;57318;56.232;43.944;2023-05-11T02:56:08;99696.81;;;12.68;39.47
69980;BME280;57318;56.232;43.944;2023-05-11T02:58:34;99695.59;;;12.72;39.47
69980;BME280;57318;56.232;43.944;2023-05-11T03:00:59;99697.16;;;12.75;39.62
69980;BME280;57318;56.232;43.944;2023-05-11T03:03:25;99700.72;;;12.85;40.03
69980;BME280;57318;56.232;43.944;2023-05-11T03:05:51;99697.41;;;12.93;40.22
69980;BME280;57318;56.232;43.944;2023-05-11T03:08:17;99693.81;;;13.04;40.85
69980;BME280;57318;56.232;43.944;2023-05-11T03:10:45;99701.16;;;13.11;40.86
69980;BME280;57318;56.232;43.944;2023-05-11T03:13:11;99704.13;;;13.18;40.34
69980;BME280;57318;56.232;43.944;2023-05-11T03:15:38;99702.34;;;13.28;40.00
69980;BME280;57318;56.232;43.944;2023-05-11T03:18:05;99707.91;;;13.37;39.96
69980;BME280;57318;56.232;43.944;2023-05-11T03:20:32;99707.78;;;13.48;39.76
69980;BME280;57318;56.232;43.944;2023-05-11T03:23:00;99703.47;;;13.57;39.27
69980;BME280;57318;56.232;43.944;2023-05-11T03:25:27;99702.50;;;13.67;39.06
69980;BME280;57318;56.232;43.944;2023-05-11T03:27:53;99705.34;;;13.76;39.10
69980;BME280;57318;56.232;43.944;2023-05-11T03:30:21;99706.34;;;13.84;39.10
69980;BME280;57318;56.232;43.944;2023-05-11T03:32:48;99710.03;;;13.93;38.74
69980;BME280;57318;56.232;43.944;2023-05-11T03:35:14;99703.84;;;14.02;38.83
69980;BME280;57318;56.232;43.944;2023-05-11T03:37:40;99711.03;;;14.12;38.94
69980;BME280;57318;56.232;43.944;2023-05-11T03:40:07;99713.00;;;14.19;38.86
69980;BME280;57318;56.232;43.944;2023-05-11T03:42:35;99711.31;;;14.28;38.58
69980;BME280;57318;56.232;43.944;2023-05-11T03:45:02;99725.69;;;14.37;38.58
69980;BME280;57318;56.232;43.944;2023-05-11T03:47:32;99718.91;;;14.42;38.58
69980;BME280;57318;56.232;43.944;2023-05-11T03:49:58;99721.72;;;14.51;38.14
69980;BME280;57318;56.232;43.944;2023-05-11T03:52:25;99717.50;;;14.58;38.17
69980;BME280;57318;56.232;43.944;2023-05-11T03:54:51;99718.69;;;14.65;38.10
69980;BME280;57318;56.232;43.944;2023-05-11T03:57:17;99724.84;;;14.75;38.09
69980;BME280;57318;56.232;43.944;2023-05-11T03:59:43;99722.28;;;14.84;37.84
69980;BME280;57318;56.232;43.944;2023-05-11T04:02:09;99724.81;;;14.95;37.69
69980;BME280;57318;56.232;43.944;2023-05-11T04:04:34;99712.53;;;15.02;37.75
69980;BME280;57318;56.232;43.944;2023-05-11T04:07:00;99723.06;;;15.13;37.64
69980;BME280;57318;56.232;43.944;2023-05-11T04:09:26;99723.22;;;15.22;37.39
69980;BME280;57318;56.232;43.944;2023-05-11T04:11:52;99724.53;;;15.36;37.05
69980;BME280;57318;56.232;43.944;2023-05-11T04:14:18;99731.69;;;15.45;37.04
69980;BME280;57318;56.232;43.944;2023-05-11T04:16:44;99727.00;;;15.57;37.15
69980;BME280;57318;56.232;43.944;2023-05-11T04:19:10;99735.00;;;15.66;36.86
69980;BME280;57318;56.232;43.944;2023-05-11T04:21:36;99730.19;;;15.80;36.60
69980;BME280;57318;56.232;43.944;2023-05-11T04:24:02;99738.53;;;15.95;35.98
69980;BME280;57318;56.232;43.944;2023-05-11T04:26:28;99734.81;;;16.05;35.41
69980;BME280;57318;56.232;43.944;2023-05-11T04:28:54;99738.41;;;16.14;34.69
69980;BME280;57318;56.232;43.944;2023-05-11T04:31:19;99742.47;;;16.18;35.01
69980;BME280;57318;56.232;43.944;2023-05-11T04:33:45;99743.25;;;16.29;35.04
69980;BME280;57318;56.232;43.944;2023-05-11T04:36:11;99744.78;;;16.31;34.92
69980;BME280;57318;56.232;43.944;2023-05-11T04:38:37;99743.13;;;16.30;34.78
69980;BME280;57318;56.232;43.944;2023-05-11T04:41:04;99746.25;;;16.26;34.76
69980;BME280;57318;56.232;43.944;2023-05-11T04:43:30;99753.56;;;16.23;35.38
69980;BME280;57318;56.232;43.944;2023-05-11T04:45:55;99750.53;;;16.18;35.82
69980;BME280;57318;56.232;43.944;2023-05-11T04:48:21;99767.34;;;16.11;35.98
69980;BME280;57318;56.232;43.944;2023-05-11T04:50:47;99762.97;;;15.92;36.32
69980;BME280;57318;56.232;43.944;2023-05-11T04:53:13;99758.38;;;15.74;37.23
69980;BME280;57318;56.232;43.944;2023-05-11T04:55:39;99757.56;;;15.64;37.59
69980;BME280;57318;56.232;43.944;2023-05-11T04:58:05;99756.31;;;15.58;38.04
69980;BME280;57318;56.232;43.944;2023-05-11T05:00:30;99761.09;;;15.64;38.28
69980;BME280;57318;56.232;43.944;2023-05-11T05:02:56;99762.16;;;15.72;38.27
69980;BME280;57318;56.232;43.944;2023-05-11T05:05:22;99765.72;;;15.72;38.65
69980;BME280;57318;56.232;43.944;2023-05-11T05:07:48;99763.47;;;15.77;38.47
69980;BME280;57318;56.232;43.944;2023-05-11T05:10:13;99767.94;;;15.86;38.34
69980;BME280;57318;56.232;43.944;2023-05-11T05:12:39;99766.75;;;15.99;38.20
69980;BME280;57318;56.232;43.944;2023-05-11T05:15:05;99764.53;;;16.12;37.81
69980;BME280;57318;56.232;43.944;2023-05-11T05:17:31;99771.91;;;16.28;36.76
69980;BME280;57318;56.232;43.944;2023-05-11T05:19:57;99770.69;;;16.40;36.35
69980;BME280;57318;56.232;43.944;2023-05-11T05:22:24;99764.00;;;16.63;35.65
69980;BME280;57318;56.232;43.944;2023-05-11T05:24:49;99764.41;;;16.86;35.19
69980;BME280;57318;56.232;43.944;2023-05-11T05:27:15;99763.44;;;17.13;34.59
69980;BME280;57318;56.232;43.944;2023-05-11T05:29:41;99761.16;;;17.53;34.09
69980;BME280;57318;56.232;43.944;2023-05-11T05:32:07;99754.47;;;17.91;33.38
69980;BME280;57318;56.232;43.944;2023-05-11T05:34:32;99753.25;;;18.28;32.76
69980;BME280;57318;56.232;43.944;2023-05-11T05:36:58;99751.09;;;18.65;32.10
69980;BME280;57318;56.232;43.944;2023-05-11T05:39:25;99747.25;;;18.92;31.51
69980;BME280;57318;56.232;43.944;2023-05-11T05:41:51;99752.59;;;19.17;30.72
69980;BME280;57318;56.232;43.944;2023-05-11T05:44:17;99754.91;;;19.36;30.57
69980;BME280;57318;56.232;43.944;2023-05-11T05:46:42;99750.00;;;19.48;29.88
69980;BME280;57318;56.232;43.944;2023-05-11T05:49:08;99760.94;;;19.55;29.60
69980;BME280;57318;56.232;43.944;2023-05-11T05:51:34;99752.50;;;19.58;29.59
69980;BME280;57318;56.232;43.944;2023-05-11T05:54:00;99750.41;;;19.68;29.53
69980;BME280;57318;56.232;43.944;2023-05-11T05:56:26;99753.44;;;19.81;29.50
69980;BME280;57318;56.232;43.944;2023-05-11T05:58:52;99750.84;;;19.96;29.36
69980;BME280;57318;56.232;43.944;2023-05-11T06:01:17;99753.16;;;20.08;28.92
69980;BME280;57318;56.232;43.944;2023-05-11T06:03:43;99745.50;;;20.19;28.57
69980;BME280;57318;56.232;43.944;2023-05-11T06:06:10;99748.41;;;20.41;28.24
69980;BME280;57318;56.232;43.944;2023-05-11T06:08:36;99744.38;;;20.37;28.13
69980;BME280;57318;56.232;43.944;2023-05-11T06:11:02;99752.63;;;20.35;28.26
69980;BME280;57318;56.232;43.944;2023-05-11T06:13:28;99746.16;;;20.45;27.96
69980;BME280;57318;56.232;43.944;2023-05-11T06:15:53;99748.16;;;20.51;27.51
69980;BME280;57318;56.232;43.944;2023-05-11T06:18:19;99745.50;;;20.89;27.08
69980;BME280;57318;56.232;43.944;2023-05-11T06:20:45;99753.97;;;21.24;26.97
69980;BME280;57318;56.232;43.944;2023-05-11T06:23:10;99754.84;;;21.54;26.07
69980;BME280;57318;56.232;43.944;2023-05-11T06:25:36;99752.03;;;21.92;25.38
69980;BME280;57318;56.232;43.944;2023-05-11T06:28:02;99752.97;;;22.21;25.12
69980;BME280;57318;56.232;43.944;2023-05-11T06:30:28;99763.53;;;22.52;24.83
69980;BME280;57318;56.232;43.944;2023-05-11T06:32:54;99754.16;;;22.70;24.22
69980;BME280;57318;56.232;43.944;2023-05-11T06:35:20;99758.09;;;22.96;23.96
69980;BME280;57318;56.232;43.944;2023-05-11T06:37:46;99754.72;;;23.43;23.28
69980;BME280;57318;56.232;43.944;2023-05-11T06:40:12;99760.84;;;23.94;22.76
69980;BME280;57318;56.232;43.944;2023-05-11T06:42:41;99765.00;;;24.52;21.98
69980;BME280;57318;56.232;43.944;2023-05-11T06:45:07;99762.34;;;24.85;21.49
69980;BME280;57318;56.232;43.944;2023-05-11T06:47:33;99766.53;;;24.81;21.09
69980;BME280;57318;56.232;43.944;2023-05-11T06:49:59;99764.22;;;24.98;20.67
69980;BME280;57318;56.232;43.944;2023-05-11T06:52:25;99760.03;;;24.75;20.92
69980;BME280;57318;56.232;43.944;2023-05-11T06:54:50;99759.84;;;24.70;21.06
69980;BME280;57318;56.232;43.944;2023-05-11T06:57:16;99758.56;;;24.66;21.11
69980;BME280;57318;56.232;43.944;2023-05-11T06:59:42;99757.75;;;24.59;21.20
69980;BME280;57318;56.232;43.944;2023-05-11T07:02:09;99749.63;;;24.85;20.92
69980;BME280;57318;56.232;43.944;2023-05-11T07:04:34;99757.75;;;25.12;20.59
69980;BME280;57318;56.232;43.944;2023-05-11T07:07:01;99750.13;;;25.68;20.15
69980;BME280;57318;56.232;43.944;2023-05-11T07:09:28;99753.34;;;26.10;19.63
69980;BME280;57318;56.232;43.944;2023-05-11T07:11:54;99755.47;;;27.04;18.46
69980;BME280;57318;56.232;43.944;2023-05-11T07:14:20;99745.81;;;27.70;17.78
69980;BME280;57318;56.232;43.944;2023-05-11T07:16:45;99756.72;;;27.70;17.55
69980;BME280;57318;56.232;43.944;2023-05-11T07:19:11;99756.16;;;27.43;18.01
69980;BME280;57318;56.232;43.944;2023-05-11T07:21:37;99754.19;;;26.81;18.46
69980;BME280;57318;56.232;43.944;2023-05-11T07:24:03;99751.31;;;26.37;18.50
69980;BME280;57318;56.232;43.944;2023-05-11T07:26:28;99756.75;;;25.99;18.69
69980;BME280;57318;56.232;43.944;2023-05-11T07:28:54;99747.91;;;25.38;18.88
69980;BME280;57318;56.232;43.944;2023-05-11T07:31:20;99753.56;;;25.50;19.03
69980;BME280;57318;56.232;43.944;2023-05-11T07:33:46;99749.03;;;26.66;18.37
69980;BME280;57318;56.232;43.944;2023-05-11T07:36:11;99751.72;;;27.23;17.47
69980;BME280;57318;56.232;43.944;2023-05-11T07:38:37;99755.13;;;27.44;17.27
69980;BME280;57318;56.232;43.944;2023-05-11T07:41:03;99757.41;;;27.47;16.96
69980;BME280;57318;56.232;43.944;2023-05-11T07:43:29;99754.22;;;27.25;16.93
69980;BME280;57318;56.232;43.944;2023-05-11T07:45:54;99751.13;;;26.96;17.21
69980;BME280;57318;56.232;43.944;2023-05-11T07:48:20;99753.22;;;26.37;17.54
69980;BME280;57318;56.232;43.944;2023-05-11T07:50:46;99754.22;;;26.04;18.06
69980;BME280;57318;56.232;43.944;2023-05-11T07:53:14;99754.13;;;25.72;18.38
69980;BME280;57318;56.232;43.944;2023-05-11T07:55:40;99753.75;;;25.42;18.99
69980;BME280;57318;56.232;43.944;2023-05-11T07:58:05;99755.25;;;25.11;19.42
69980;BME280;57318;56.232;43.944;2023-05-11T08:00:31;99756.72;;;24.66;19.82
69980;BME280;57318;56.232;43.944;2023-05-11T08:02:57;99747.81;;;24.31;20.22
69980;BME280;57318;56.232;43.944;2023-05-11T08:05:23;99754.28;;;24.17;20.62
69980;BME280;57318;56.232;43.944;2023-05-11T08:07:49;99753.38;;;23.96;20.97
69980;BME280;57318;56.232;43.944;2023-05-11T08:10:14;99750.22;;;23.57;20.93
69980;BME280;57318;56.232;43.944;2023-05-11T08:12:40;99747.69;;;23.21;21.26
69980;BME280;57318;56.232;43.944;2023-05-11T08:15:06;99748.50;;;22.93;21.56
69980;BME280;57318;56.232;43.944;2023-05-11T08:17:33;99747.38;;;22.59;22.07
69980;BME280;57318;56.232;43.944;2023-05-11T08:19:59;99744.47;;;22.24;21.81
69980;BME280;57318;56.232;43.944;2023-05-11T08:22:25;99741.38;;;22.06;22.25
69980;BME280;57318;56.232;43.944;2023-05-11T08:24:50;99746.91;;;21.83;23.02
69980;BME280;57318;56.232;43.944;2023-05-11T08:27:16;99740.84;;;21.66;23.34
69980;BME280;57318;56.232;43.944;2023-05-11T08:29:42;99742.16;;;21.40;23.86
69980;BME280;57318;56.232;43.944;2023-05-11T08:32:08;99742.50;;;21.22;24.42
69980;BME280;57318;56.232;43.944;2023-05-11T08:34:33;99740.34;;;21.17;24.64
69980;BME280;57318;56.232;43.944;2023-05-11T08:36:59;99749.69;;;21.30;24.32
69980;BME280;57318;56.232;43.944;2023-05-11T08:39:28;99750.66;;;21.52;24.14
69980;BME280;57318;56.232;43.944;2023-05-11T08:41:57;99745.03;;;21.98;23.26
69980;BME280;57318;56.232;43.944;2023-05-11T08:44:28;99742.44;;;23.13;22.56
69980;BME280;57318;56.232;43.944;2023-05-11T08:46:57;99742.31;;;23.63;21.19
69980;BME280;57318;56.232;43.944;2023-05-11T08:49:24;99742.34;;;24.11;21.37
69980;BME280;57318;56.232;43.944;2023-05-11T08:51:50;99745.53;;;24.28;20.89
69980;BME280;57318;56.232;43.944;2023-05-11T08:54:16;99734.66;;;24.41;20.47
69980;BME280;57318;56.232;43.944;2023-05-11T08:56:42;99736.84;;;24.59;20.78
69980;BME280;57318;56.232;43.944;2023-05-11T08:59:08;99733.72;;;24.62;21.24
69980;BME280;57318;56.232;43.944;2023-05-11T09:01:35;99728.66;;;24.53;21.31
69980;BME280;57318;56.232;43.944;2023-05-11T09:04:04;99733.09;;;24.94;20.99
69980;BME280;57318;56.232;43.944;2023-05-11T09:06:31;99732.00;;;25.15;20.84
69980;BME280;57318;56.232;43.944;2023-05-11T09:08:58;99726.56;;;25.48;20.39
69980;BME280;57318;56.232;43.944;2023-05-11T09:11:24;99731.34;;;25.26;20.59
69980;BME280;57318;56.232;43.944;2023-05-11T09:13:50;99732.34;;;25.72;20.46
69980;BME280;57318;56.232;43.944;2023-05-11T09:16:16;99729.19;;;25.75;20.42
69980;BME280;57318;56.232;43.944;2023-05-11T09:18:49;99719.63;;;25.52;20.29
69980;BME280;57318;56.232;43.944;2023-05-11T09:21:16;99727.19;;;25.10;21.20
69980;BME280;57318;56.232;43.944;2023-05-11T09:23:42;99715.47;;;24.49;21.63
69980;BME280;57318;56.232;43.944;2023-05-11T09:26:15;99717.28;;;24.16;21.59
69980;BME280;57318;56.232;43.944;2023-05-11T09:29:07;99722.25;;;23.57;21.94
69980;BME280;57318;56.232;43.944;2023-05-11T09:31:34;99703.31;;;23.00;22.72
69980;BME280;57318;56.232;43.944;2023-05-11T09:34:14;99708.00;;;22.85;23.56
69980;BME280;57318;56.232;43.944;2023-05-11T09:36:44;99707.44;;;22.68;23.96
69980;BME280;57318;56.232;43.944;2023-05-11T09:39:11;99703.78;;;22.54;24.21
69980;BME280;57318;56.232;43.944;2023-05-11T09:41:37;99700.75;;;22.64;24.27
69980;BME280;57318;56.232;43.944;2023-05-11T09:44:05;99705.03;;;22.80;24.08
69980;BME280;57318;56.232;43.944;2023-05-11T09:46:30;99709.34;;;23.24;23.66
69980;BME280;57318;56.232;43.944;2023-05-11T09:48:58;99713.34;;;24.18;22.66
69980;BME280;57318;56.232;43.944;2023-05-11T09:51:29;99708.56;;;27.57;19.57
69980;BME280;57318;56.232;43.944;2023-05-11T09:53:59;99718.19;;;30.45;17.09
69980;BME280;57318;56.232;43.944;2023-05-11T09:56:52;99710.84;;;33.21;14.03
69980;BME280;57318;56.232;43.944;2023-05-11T10:04:52;99705.94;;;36.17;11.18
69980;BME280;57318;56.232;43.944;2023-05-11T10:07:32;99706.28;;;35.29;11.73
69980;BME280;57318;56.232;43.944;2023-05-11T10:10:00;99699.91;;;35.44;11.72
69980;BME280;57318;56.232;43.944;2023-05-11T10:12:27;99697.03;;;35.75;11.40
69980;BME280;57318;56.232;43.944;2023-05-11T10:15:06;99699.44;;;34.65;11.60
69980;BME280;57318;56.232;43.944;2023-05-11T10:17:36;99690.84;;;33.47;12.73
69980;BME280;57318;56.232;43.944;2023-05-11T10:20:03;99693.66;;;32.39;13.21
69980;BME280;57318;56.232;43.944;2023-05-11T10:22:32;99688.34;;;31.39;14.23
69980;BME280;57318;56.232;43.944;2023-05-11T10:24:58;99684.28;;;30.68;14.46
69980;BME280;57318;56.232;43.944;2023-05-11T10:27:24;99685.88;;;30.47;14.42
69980;BME280;57318;56.232;43.944;2023-05-11T10:29:50;99687.94;;;30.11;14.44
69980;BME280;57318;56.232;43.944;2023-05-11T10:32:17;99677.75;;;29.95;14.33
69980;BME280;57318;56.232;43.944;2023-05-11T10:34:43;99676.53;;;30.02;14.57
69980;BME280;57318;56.232;43.944;2023-05-11T10:37:12;99675.41;;;29.86;14.41
69980;BME280;57318;56.232;43.944;2023-05-11T10:39:39;99684.22;;;29.89;14.41
69980;BME280;57318;56.232;43.944;2023-05-11T10:42:49;99669.16;;;30.03;14.63
69980;BME280;57318;56.232;43.944;2023-05-11T10:45:13;99669.22;;;31.66;13.25
69980;BME280;57318;56.232;43.944;2023-05-11T10:58:07;99680.88;;;39.71;8.19
69980;BME280;57318;56.232;43.944;2023-05-11T11:03:13;99671.38;;;39.03;8.37
69980;BME280;57318;56.232;43.944;2023-05-11T11:05:39;99667.22;;;38.53;8.46
69980;BME280;57318;56.232;43.944;2023-05-11T11:08:06;99658.41;;;36.49;9.43
69980;BME280;57318;56.232;43.944;2023-05-11T11:10:36;99663.44;;;37.73;9.12
69980;BME280;57318;56.232;43.944;2023-05-11T11:13:04;99657.63;;;38.13;8.49
69980;BME280;57318;56.232;43.944;2023-05-11T11:18:22;99653.47;;;39.78;8.21
69980;BME280;57318;56.232;43.944;2023-05-11T11:20:49;99650.88;;;40.41;7.79
69980;BME280;57318;56.232;43.944;2023-05-11T11:26:09;99656.59;;;41.96;6.86
69980;BME280;57318;56.232;43.944;2023-05-11T11:33:52;99644.22;;;39.69;7.74
69980;BME280;57318;56.232;43.944;2023-05-11T11:42:34;99621.22;;;37.57;9.42
69980;BME280;57318;56.232;43.944;2023-05-11T11:45:30;99618.34;;;34.56;10.77
69980;BME280;57318;56.232;43.944;2023-05-11T11:48:07;99616.03;;;32.64;12.67
69980;BME280;57318;56.232;43.944;2023-05-11T11:50:33;99612.28;;;31.39;13.62
69980;BME280;57318;56.232;43.944;2023-05-11T11:52:59;99606.97;;;30.03;14.37
69980;BME280;57318;56.232;43.944;2023-05-11T11:58:09;99593.41;;;27.97;16.68
69980;BME280;57318;56.232;43.944;2023-05-11T12:00:34;99592.50;;;27.54;16.88
69980;BME280;57318;56.232;43.944;2023-05-11T12:03:01;99592.75;;;27.16;17.90
69980;BME280;57318;56.232;43.944;2023-05-11T12:05:27;99589.34;;;26.83;16.65
69980;BME280;57318;56.232;43.944;2023-05-11T12:07:53;99594.19;;;26.56;16.97
69980;BME280;57318;56.232;43.944;2023-05-11T12:10:21;99587.00;;;26.62;17.02
69980;BME280;57318;56.232;43.944;2023-05-11T12:12:48;99590.66;;;27.97;16.06
69980;BME280;57318;56.232;43.944;2023-05-11T12:15:28;99592.59;;;28.08;15.48
69980;BME280;57318;56.232;43.944;2023-05-11T12:17:54;99592.16;;;29.87;14.11
69980;BME280;57318;56.232;43.944;2023-05-11T12:20:20;99596.88;;;31.55;12.74
69980;BME280;57318;56.232;43.944;2023-05-11T12:22:46;99599.41;;;33.39;11.54
69980;BME280;57318;56.232;43.944;2023-05-11T12:25:17;99600.66;;;34.41;11.05
69980;BME280;57318;56.232;43.944;2023-05-11T12:27:53;99594.34;;;35.47;10.44
69980;BME280;57318;56.232;43.944;2023-05-11T12:30:20;99593.50;;;35.97;10.09
69980;BME280;57318;56.232;43.944;2023-05-11T12:32:46;99590.75;;;36.31;10.18
69980;BME280;57318;56.232;43.944;2023-05-11T12:35:12;99591.72;;;36.11;10.18
69980;BME280;57318;56.232;43.944;2023-05-11T12:37:40;99591.56;;;35.97;10.00
69980;BME280;57318;56.232;43.944;2023-05-11T12:40:11;99602.13;;;35.24;10.43
69980;BME280;57318;56.232;43.944;2023-05-11T12:42:37;99591.88;;;34.34;11.34
69980;BME280;57318;56.232;43.944;2023-05-11T12:45:04;99591.69;;;33.47;12.41
69980;BME280;57318;56.232;43.944;2023-05-11T12:47:31;99593.19;;;31.72;13.61
69980;BME280;57318;56.232;43.944;2023-05-11T12:49:57;99579.94;;;30.41;14.74
69980;BME280;57318;56.232;43.944;2023-05-11T12:52:23;99580.88;;;28.91;16.27
69980;BME280;57318;56.232;43.944;2023-05-11T12:54:49;99571.91;;;27.70;17.19
69980;BME280;57318;56.232;43.944;2023-05-11T12:57:26;99577.75;;;26.63;18.29
69980;BME280;57318;56.232;43.944;2023-05-11T13:00:06;99564.00;;;25.75;18.85
69980;BME280;57318;56.232;43.944;2023-05-11T13:02:33;99568.28;;;25.06;19.73
69980;BME280;57318;56.232;43.944;2023-05-11T13:05:09;99572.16;;;24.38;20.47
69980;BME280;57318;56.232;43.944;2023-05-11T13:07:35;99564.00;;;25.37;19.99
69980;BME280;57318;56.232;43.944;2023-05-11T13:10:01;99563.41;;;26.93;18.57
69980;BME280;57318;56.232;43.944;2023-05-11T13:12:28;99569.75;;;28.03;17.51
69980;BME280;57318;56.232;43.944;2023-05-11T13:15:05;99569.41;;;27.99;16.71
69980;BME280;57318;56.232;43.944;2023-05-11T13:17:36;99568.41;;;27.51;17.02
69980;BME280;57318;56.232;43.944;2023-05-11T13:20:24;99562.50;;;26.99;17.62
69980;BME280;57318;56.232;43.944;2023-05-11T13:23:07;99562.88;;;26.40;18.31
69980;BME280;57318;56.232;43.944;2023-05-11T13:25:36;99559.47;;;25.94;18.93
69980;BME280;57318;56.232;43.944;2023-05-11T13:28:16;99559.84;;;25.34;19.71
69980;BME280;57318;56.232;43.944;2023-05-11T13:30:42;99564.78;;;24.79;20.07
69980;BME280;57318;56.232;43.944;2023-05-11T13:33:08;99566.72;;;24.31;20.51
69980;BME280;57318;56.232;43.944;2023-05-11T13:35:38;99563.72;;;23.73;21.25
69980;BME280;57318;56.232;43.944;2023-05-11T13:38:04;99564.78;;;23.17;22.22
69980;BME280;57318;56.232;43.944;2023-05-11T13:40:30;99559.78;;;22.79;22.73
69980;BME280;57318;56.232;43.944;2023-05-11T13:42:56;99565.44;;;22.49;23.47
69980;BME280;57318;56.232;43.944;2023-05-11T13:45:21;99557.91;;;22.23;23.74